sensor_id;sensor_type;location;lat;lon;timestamp;P1;durP1;ratioP1;P2;durP2;ratioP2
43435;SDS011;36399;51.444;-2.018;2022-12-07T00:01:33;47.00;;;22.23;;
43435;SDS011;36399;51.444;-2.018;2022-12-07T00:04:02;50.77;;;23.77;;
43435;SDS011;36399;51.444;-2.018;2022-12-07T00:08:58;49.73;;;23.67;;
43435;SDS011;36399;51.444;-2.018;2022-12-07T00:11:24;56.77;;;25.23;;
43435;SDS011;36399;51.444;-2.018;2022-12-07T00:13:52;52.60;;;22.97;;
43435;SDS011;36399;51.444;-2.018;2022-12-07T00:16:20;53.00;;;24.97;;
43435;SDS011;36399;51.444;-2.018;2022-12-07T00:18:47;54.77;;;24.17;;
43435;SDS011;36399;51.444;-2.018;2022-12-07T00:21:20;58.23;;;23.57;;
43435;SDS011;36399;51.444;-2.018;2022-12-07T00:23:57;52.45;;;24.17;;
43435;SDS011;36399;51.444;-2.018;2022-12-07T00:26:24;53.73;;;25.47;;
43435;SDS011;36399;51.444;-2.018;2022-12-07T00:28:53;59.87;;;25.70;;
43435;SDS011;36399;51.444;-2.018;2022-12-07T00:31:23;56.07;;;27.00;;
43435;SDS011;36399;51.444;-2.018;2022-12-07T00:33:51;60.10;;;24.67;;
43435;SDS011;36399;51.444;-2.018;2022-12-07T00:36:18;54.10;;;25.10;;
43435;SDS011;36399;51.444;-2.018;2022-12-07T00:38:45;58.10;;;26.47;;
43435;SDS011;36399;51.444;-2.018;2022-12-07T00:41:12;61.30;;;25.73;;
43435;SDS011;36399;51.444;-2.018;2022-12-07T00:43:40;52.87;;;22.73;;
43435;SDS011;36399;51.444;-2.018;2022-12-07T00:46:07;55.53;;;23.77;;
43435;SDS011;36399;51.444;-2.018;2022-12-07T00:48:33;56.77;;;24.80;;
43435;SDS011;36399;51.444;-2.018;2022-12-07T00:51:00;48.77;;;22.67;;
43435;SDS011;36399;51.444;-2.018;2022-12-07T00:53:27;50.97;;;23.27;;
43435;SDS011;36399;51.444;-2.018;2022-12-07T00:55:53;52.47;;;23.03;;
43435;SDS011;36399;51.444;-2.018;2022-12-07T00:58:21;47.00;;;21.90;;
43435;SDS011;36399;51.444;-2.018;2022-12-07T01:00:47;46.20;;;22.97;;
43435;SDS011;36399;51.444;-2.018;2022-12-07T01:03:16;48.83;;;22.13;;
43435;SDS011;36399;51.444;-2.018;2022-12-07T01:05:52;53.50;;;25.13;;
43435;SDS011;36399;51.444;-2.018;2022-12-07T01:08:19;58.47;;;23.90;;
43435;SDS011;36399;51.444;-2.018;2022-12-07T01:10:46;58.53;;;23.27;;
43435;SDS011;36399;51.444;-2.018;2022-12-07T01:13:13;49.47;;;25.20;;
43435;SDS011;36399;51.444;-2.018;2022-12-07T01:15:39;57.43;;;24.30;;
43435;SDS011;36399;51.444;-2.018;2022-12-07T01:18:07;62.83;;;26.07;;
43435;SDS011;36399;51.444;-2.018;2022-12-07T01:20:36;65.40;;;26.50;;
43435;SDS011;36399;51.444;-2.018;2022-12-07T01:23:02;59.10;;;25.07;;
43435;SDS011;36399;51.444;-2.018;2022-12-07T01:25:29;56.23;;;25.93;;
43435;SDS011;36399;51.444;-2.018;2022-12-07T01:27:55;49.70;;;23.17;;
43435;SDS011;36399;51.444;-2.018;2022-12-07T01:30:21;57.23;;;26.00;;
43435;SDS011;36399;51.444;-2.018;2022-12-07T01:32:47;52.50;;;25.20;;
43435;SDS011;36399;51.444;-2.018;2022-12-07T01:35:13;51.77;;;22.97;;
43435;SDS011;36399;51.444;-2.018;2022-12-07T01:37:39;55.87;;;23.37;;
43435;SDS011;36399;51.444;-2.018;2022-12-07T01:40:06;52.33;;;23.40;;
43435;SDS011;36399;51.444;-2.018;2022-12-07T01:42:34;57.93;;;24.57;;
43435;SDS011;36399;51.444;-2.018;2022-12-07T01:47:45;55.47;;;25.47;;
43435;SDS011;36399;51.444;-2.018;2022-12-07T01:50:16;57.57;;;24.47;;
43435;SDS011;36399;51.444;-2.018;2022-12-07T01:52:43;60.60;;;25.77;;
43435;SDS011;36399;51.444;-2.018;2022-12-07T01:55:12;63.23;;;25.90;;
43435;SDS011;36399;51.444;-2.018;2022-12-07T01:57:43;58.87;;;25.57;;
43435;SDS011;36399;51.444;-2.018;2022-12-07T02:00:13;64.03;;;25.30;;
43435;SDS011;36399;51.444;-2.018;2022-12-07T02:02:47;54.07;;;24.33;;
43435;SDS011;36399;51.444;-2.018;2022-12-07T02:05:20;60.37;;;24.60;;
43435;SDS011;36399;51.444;-2.018;2022-12-07T02:07:49;58.23;;;24.87;;
43435;SDS011;36399;51.444;-2.018;2022-12-07T02:10:18;55.90;;;25.80;;
43435;SDS011;36399;51.444;-2.018;2022-12-07T02:12:49;49.43;;;24.00;;
43435;SDS011;36399;51.444;-2.018;2022-12-07T02:15:19;51.90;;;23.50;;
43435;SDS011;36399;51.444;-2.018;2022-12-07T02:17:51;53.10;;;23.33;;
43435;SDS011;36399;51.444;-2.018;2022-12-07T02:23:40;51.60;;;22.33;;
43435;SDS011;36399;51.444;-2.018;2022-12-07T02:28:37;54.97;;;23.10;;
43435;SDS011;36399;51.444;-2.018;2022-12-07T02:31:32;48.60;;;22.10;;
43435;SDS011;36399;51.444;-2.018;2022-12-07T02:34:02;50.23;;;22.40;;
43435;SDS011;36399;51.444;-2.018;2022-12-07T02:36:37;46.77;;;21.93;;
43435;SDS011;36399;51.444;-2.018;2022-12-07T02:39:11;47.78;;;21.90;;
43435;SDS011;36399;51.444;-2.018;2022-12-07T02:41:48;44.83;;;20.67;;
43435;SDS011;36399;51.444;-2.018;2022-12-07T02:44:22;46.40;;;21.10;;
43435;SDS011;36399;51.444;-2.018;2022-12-07T02:46:52;51.67;;;22.37;;
43435;SDS011;36399;51.444;-2.018;2022-12-07T02:49:24;44.23;;;19.93;;
43435;SDS011;36399;51.444;-2.018;2022-12-07T02:51:52;45.30;;;22.00;;
43435;SDS011;36399;51.444;-2.018;2022-12-07T02:54:19;47.77;;;21.23;;
43435;SDS011;36399;51.444;-2.018;2022-12-07T02:56:55;45.63;;;19.80;;
43435;SDS011;36399;51.444;-2.018;2022-12-07T03:02:18;45.70;;;21.30;;
43435;SDS011;36399;51.444;-2.018;2022-12-07T03:07:54;49.13;;;21.48;;
43435;SDS011;36399;51.444;-2.018;2022-12-07T03:16:16;47.97;;;19.73;;
43435;SDS011;36399;51.444;-2.018;2022-12-07T03:18:51;55.33;;;21.37;;
43435;SDS011;36399;51.444;-2.018;2022-12-07T03:21:23;44.57;;;20.50;;
43435;SDS011;36399;51.444;-2.018;2022-12-07T03:23:54;45.97;;;20.77;;
43435;SDS011;36399;51.444;-2.018;2022-12-07T03:26:24;44.67;;;20.20;;
43435;SDS011;36399;51.444;-2.018;2022-12-07T03:29:01;50.50;;;23.17;;
43435;SDS011;36399;51.444;-2.018;2022-12-07T03:31:33;58.85;;;23.00;;
43435;SDS011;36399;51.444;-2.018;2022-12-07T03:36:55;57.73;;;24.67;;
43435;SDS011;36399;51.444;-2.018;2022-12-07T03:41:56;57.33;;;20.40;;
43435;SDS011;36399;51.444;-2.018;2022-12-07T03:44:25;62.27;;;22.33;;
43435;SDS011;36399;51.444;-2.018;2022-12-07T03:47:05;52.20;;;23.13;;
43435;SDS011;36399;51.444;-2.018;2022-12-07T03:49:41;50.23;;;21.13;;
43435;SDS011;36399;51.444;-2.018;2022-12-07T03:52:25;61.03;;;23.63;;
43435;SDS011;36399;51.444;-2.018;2022-12-07T03:55:18;50.90;;;22.83;;
43435;SDS011;36399;51.444;-2.018;2022-12-07T03:57:51;50.43;;;22.23;;
43435;SDS011;36399;51.444;-2.018;2022-12-07T04:00:21;57.67;;;23.50;;
43435;SDS011;36399;51.444;-2.018;2022-12-07T04:02:47;47.17;;;21.40;;
43435;SDS011;36399;51.444;-2.018;2022-12-07T04:05:13;51.70;;;23.40;;
43435;SDS011;36399;51.444;-2.018;2022-12-07T04:07:39;55.73;;;21.80;;
43435;SDS011;36399;51.444;-2.018;2022-12-07T04:10:06;48.87;;;21.30;;
43435;SDS011;36399;51.444;-2.018;2022-12-07T04:12:32;52.00;;;21.93;;
43435;SDS011;36399;51.444;-2.018;2022-12-07T04:15:02;43.27;;;22.47;;
43435;SDS011;36399;51.444;-2.018;2022-12-07T04:17:29;44.33;;;21.20;;
43435;SDS011;36399;51.444;-2.018;2022-12-07T04:19:55;42.90;;;19.17;;
43435;SDS011;36399;51.444;-2.018;2022-12-07T04:22:21;47.20;;;21.40;;
43435;SDS011;36399;51.444;-2.018;2022-12-07T04:24:47;44.30;;;19.43;;
43435;SDS011;36399;51.444;-2.018;2022-12-07T04:27:12;43.07;;;19.40;;
43435;SDS011;36399;51.444;-2.018;2022-12-07T04:29:39;42.03;;;18.63;;
43435;SDS011;36399;51.444;-2.018;2022-12-07T04:32:05;48.97;;;22.33;;
43435;SDS011;36399;51.444;-2.018;2022-12-07T04:34:31;43.15;;;20.52;;
43435;SDS011;36399;51.444;-2.018;2022-12-07T04:36:57;44.87;;;21.43;;
43435;SDS011;36399;51.444;-2.018;2022-12-07T04:39:27;49.03;;;20.67;;
43435;SDS011;36399;51.444;-2.018;2022-12-07T04:41:55;51.73;;;22.73;;
43435;SDS011;36399;51.444;-2.018;2022-12-07T04:44:22;48.50;;;20.50;;
43435;SDS011;36399;51.444;-2.018;2022-12-07T04:46:49;56.27;;;22.30;;
43435;SDS011;36399;51.444;-2.018;2022-12-07T04:49:16;46.67;;;20.50;;
43435;SDS011;36399;51.444;-2.018;2022-12-07T04:51:43;50.97;;;22.13;;
43435;SDS011;36399;51.444;-2.018;2022-12-07T04:54:09;46.07;;;22.30;;
43435;SDS011;36399;51.444;-2.018;2022-12-07T04:56:36;54.47;;;21.93;;
43435;SDS011;36399;51.444;-2.018;2022-12-07T04:59:02;45.10;;;20.23;;
43435;SDS011;36399;51.444;-2.018;2022-12-07T05:01:28;50.40;;;20.93;;
43435;SDS011;36399;51.444;-2.018;2022-12-07T05:03:55;58.43;;;22.43;;
43435;SDS011;36399;51.444;-2.018;2022-12-07T05:06:21;58.07;;;23.60;;
43435;SDS011;36399;51.444;-2.018;2022-12-07T05:08:47;55.00;;;24.90;;
43435;SDS011;36399;51.444;-2.018;2022-12-07T05:11:14;50.23;;;22.40;;
43435;SDS011;36399;51.444;-2.018;2022-12-07T05:14:01;55.90;;;23.33;;
43435;SDS011;36399;51.444;-2.018;2022-12-07T05:16:28;62.67;;;25.90;;
43435;SDS011;36399;51.444;-2.018;2022-12-07T05:18:55;53.37;;;24.57;;
43435;SDS011;36399;51.444;-2.018;2022-12-07T05:21:21;67.97;;;25.27;;
43435;SDS011;36399;51.444;-2.018;2022-12-07T05:23:47;69.33;;;25.73;;
43435;SDS011;36399;51.444;-2.018;2022-12-07T05:26:13;58.13;;;24.57;;
43435;SDS011;36399;51.444;-2.018;2022-12-07T05:28:39;60.63;;;26.37;;
43435;SDS011;36399;51.444;-2.018;2022-12-07T05:31:05;52.67;;;24.13;;
43435;SDS011;36399;51.444;-2.018;2022-12-07T05:33:31;56.53;;;25.20;;
43435;SDS011;36399;51.444;-2.018;2022-12-07T05:35:57;52.73;;;24.00;;
43435;SDS011;36399;51.444;-2.018;2022-12-07T05:38:23;54.43;;;23.70;;
43435;SDS011;36399;51.444;-2.018;2022-12-07T05:40:50;42.07;;;21.63;;
43435;SDS011;36399;51.444;-2.018;2022-12-07T05:43:16;46.03;;;21.77;;
43435;SDS011;36399;51.444;-2.018;2022-12-07T05:45:42;42.43;;;20.43;;
43435;SDS011;36399;51.444;-2.018;2022-12-07T05:48:08;45.67;;;20.47;;
43435;SDS011;36399;51.444;-2.018;2022-12-07T05:50:34;52.67;;;22.20;;
43435;SDS011;36399;51.444;-2.018;2022-12-07T05:53:00;46.07;;;21.27;;
43435;SDS011;36399;51.444;-2.018;2022-12-07T05:55:26;47.73;;;21.40;;
43435;SDS011;36399;51.444;-2.018;2022-12-07T05:57:52;45.53;;;22.30;;
43435;SDS011;36399;51.444;-2.018;2022-12-07T06:00:36;46.57;;;19.67;;
43435;SDS011;36399;51.444;-2.018;2022-12-07T06:03:02;44.13;;;20.20;;
43435;SDS011;36399;51.444;-2.018;2022-12-07T06:05:28;50.77;;;22.43;;
43435;SDS011;36399;51.444;-2.018;2022-12-07T06:07:54;48.37;;;21.63;;
43435;SDS011;36399;51.444;-2.018;2022-12-07T06:10:20;46.00;;;21.63;;
43435;SDS011;36399;51.444;-2.018;2022-12-07T06:12:46;41.00;;;19.47;;
43435;SDS011;36399;51.444;-2.018;2022-12-07T06:15:12;47.30;;;20.90;;
43435;SDS011;36399;51.444;-2.018;2022-12-07T06:17:38;42.93;;;19.87;;
43435;SDS011;36399;51.444;-2.018;2022-12-07T06:20:05;39.33;;;19.30;;
43435;SDS011;36399;51.444;-2.018;2022-12-07T06:22:32;51.67;;;21.60;;
43435;SDS011;36399;51.444;-2.018;2022-12-07T06:24:58;45.50;;;21.00;;
43435;SDS011;36399;51.444;-2.018;2022-12-07T06:27:26;45.80;;;20.23;;
43435;SDS011;36399;51.444;-2.018;2022-12-07T06:29:52;47.20;;;20.77;;
43435;SDS011;36399;51.444;-2.018;2022-12-07T06:32:18;54.27;;;21.10;;
43435;SDS011;36399;51.444;-2.018;2022-12-07T06:34:44;49.07;;;22.00;;
43435;SDS011;36399;51.444;-2.018;2022-12-07T06:37:09;47.93;;;22.17;;
43435;SDS011;36399;51.444;-2.018;2022-12-07T06:39:35;49.20;;;20.50;;
43435;SDS011;36399;51.444;-2.018;2022-12-07T06:42:01;62.13;;;24.83;;
43435;SDS011;36399;51.444;-2.018;2022-12-07T06:44:27;58.60;;;23.97;;
43435;SDS011;36399;51.444;-2.018;2022-12-07T06:46:53;57.30;;;23.97;;
43435;SDS011;36399;51.444;-2.018;2022-12-07T06:49:19;57.63;;;25.03;;
43435;SDS011;36399;51.444;-2.018;2022-12-07T06:51:45;45.03;;;21.27;;
43435;SDS011;36399;51.444;-2.018;2022-12-07T06:54:12;56.03;;;24.93;;
43435;SDS011;36399;51.444;-2.018;2022-12-07T06:56:39;53.70;;;23.87;;
43435;SDS011;36399;51.444;-2.018;2022-12-07T06:59:06;68.40;;;24.17;;
43435;SDS011;36399;51.444;-2.018;2022-12-07T07:01:33;48.90;;;22.70;;
43435;SDS011;36399;51.444;-2.018;2022-12-07T07:04:00;54.93;;;22.50;;
43435;SDS011;36399;51.444;-2.018;2022-12-07T07:06:27;57.10;;;22.10;;
43435;SDS011;36399;51.444;-2.018;2022-12-07T07:08:53;52.20;;;23.30;;
43435;SDS011;36399;51.444;-2.018;2022-12-07T07:11:18;54.80;;;24.70;;
43435;SDS011;36399;51.444;-2.018;2022-12-07T07:13:45;57.10;;;24.93;;
43435;SDS011;36399;51.444;-2.018;2022-12-07T07:16:11;56.73;;;22.80;;
43435;SDS011;36399;51.444;-2.018;2022-12-07T07:18:38;55.10;;;22.33;;
43435;SDS011;36399;51.444;-2.018;2022-12-07T07:21:04;53.93;;;23.27;;
43435;SDS011;36399;51.444;-2.018;2022-12-07T07:23:30;52.13;;;25.00;;
43435;SDS011;36399;51.444;-2.018;2022-12-07T07:25:56;59.57;;;21.70;;
43435;SDS011;36399;51.444;-2.018;2022-12-07T07:28:22;57.67;;;23.10;;
43435;SDS011;36399;51.444;-2.018;2022-12-07T07:30:48;55.23;;;24.17;;
43435;SDS011;36399;51.444;-2.018;2022-12-07T07:33:14;57.07;;;24.93;;
43435;SDS011;36399;51.444;-2.018;2022-12-07T07:35:40;56.63;;;25.43;;
43435;SDS011;36399;51.444;-2.018;2022-12-07T07:38:07;56.90;;;25.33;;
43435;SDS011;36399;51.444;-2.018;2022-12-07T07:40:33;57.23;;;24.80;;
43435;SDS011;36399;51.444;-2.018;2022-12-07T07:43:00;58.23;;;24.50;;
43435;SDS011;36399;51.444;-2.018;2022-12-07T07:45:27;69.30;;;24.53;;
43435;SDS011;36399;51.444;-2.018;2022-12-07T07:47:53;67.17;;;27.47;;
43435;SDS011;36399;51.444;-2.018;2022-12-07T07:50:19;57.35;;;25.55;;
43435;SDS011;36399;51.444;-2.018;2022-12-07T07:52:46;54.70;;;26.07;;
43435;SDS011;36399;51.444;-2.018;2022-12-07T07:55:13;57.40;;;25.97;;
43435;SDS011;36399;51.444;-2.018;2022-12-07T07:57:39;52.97;;;23.17;;
43435;SDS011;36399;51.444;-2.018;2022-12-07T08:00:12;62.03;;;24.67;;
43435;SDS011;36399;51.444;-2.018;2022-12-07T08:02:40;47.73;;;22.67;;
43435;SDS011;36399;51.444;-2.018;2022-12-07T08:05:07;57.50;;;27.40;;
43435;SDS011;36399;51.444;-2.018;2022-12-07T08:07:33;57.83;;;26.63;;
43435;SDS011;36399;51.444;-2.018;2022-12-07T08:09:59;50.90;;;23.77;;
43435;SDS011;36399;51.444;-2.018;2022-12-07T08:12:25;58.97;;;25.43;;
43435;SDS011;36399;51.444;-2.018;2022-12-07T08:14:52;51.43;;;24.73;;
43435;SDS011;36399;51.444;-2.018;2022-12-07T08:17:18;61.17;;;25.07;;
43435;SDS011;36399;51.444;-2.018;2022-12-07T08:19:45;54.43;;;24.53;;
43435;SDS011;36399;51.444;-2.018;2022-12-07T08:22:11;56.87;;;25.37;;
43435;SDS011;36399;51.444;-2.018;2022-12-07T08:24:37;48.87;;;24.30;;
43435;SDS011;36399;51.444;-2.018;2022-12-07T08:27:03;58.53;;;24.50;;
43435;SDS011;36399;51.444;-2.018;2022-12-07T08:29:29;49.57;;;24.70;;
43435;SDS011;36399;51.444;-2.018;2022-12-07T08:31:55;47.87;;;22.67;;
43435;SDS011;36399;51.444;-2.018;2022-12-07T08:34:21;50.53;;;23.40;;
43435;SDS011;36399;51.444;-2.018;2022-12-07T08:36:47;44.23;;;21.43;;
43435;SDS011;36399;51.444;-2.018;2022-12-07T08:39:13;58.83;;;23.67;;
43435;SDS011;36399;51.444;-2.018;2022-12-07T08:41:39;57.97;;;23.10;;
43435;SDS011;36399;51.444;-2.018;2022-12-07T08:44:05;45.03;;;23.33;;
43435;SDS011;36399;51.444;-2.018;2022-12-07T08:49:12;45.50;;;20.80;;
43435;SDS011;36399;51.444;-2.018;2022-12-07T08:51:43;50.73;;;21.27;;
43435;SDS011;36399;51.444;-2.018;2022-12-07T08:54:10;49.97;;;21.07;;
43435;SDS011;36399;51.444;-2.018;2022-12-07T08:56:39;49.20;;;20.23;;
43435;SDS011;36399;51.444;-2.018;2022-12-07T08:59:06;44.10;;;20.33;;
43435;SDS011;36399;51.444;-2.018;2022-12-07T09:01:32;45.60;;;20.80;;
43435;SDS011;36399;51.444;-2.018;2022-12-07T09:03:58;45.63;;;20.93;;
43435;SDS011;36399;51.444;-2.018;2022-12-07T09:06:24;40.10;;;18.60;;
43435;SDS011;36399;51.444;-2.018;2022-12-07T09:08:52;40.67;;;19.70;;
43435;SDS011;36399;51.444;-2.018;2022-12-07T09:11:21;38.43;;;18.77;;
43435;SDS011;36399;51.444;-2.018;2022-12-07T09:13:47;46.93;;;20.80;;
43435;SDS011;36399;51.444;-2.018;2022-12-07T09:16:13;40.53;;;16.70;;
43435;SDS011;36399;51.444;-2.018;2022-12-07T09:18:40;43.47;;;19.20;;
43435;SDS011;36399;51.444;-2.018;2022-12-07T09:21:05;38.67;;;17.53;;
43435;SDS011;36399;51.444;-2.018;2022-12-07T09:23:31;43.13;;;18.40;;
43435;SDS011;36399;51.444;-2.018;2022-12-07T09:26:01;47.73;;;21.60;;
43435;SDS011;36399;51.444;-2.018;2022-12-07T09:28:28;45.10;;;21.43;;
43435;SDS011;36399;51.444;-2.018;2022-12-07T09:30:54;44.53;;;19.33;;
43435;SDS011;36399;51.444;-2.018;2022-12-07T09:33:19;34.07;;;17.63;;
43435;SDS011;36399;51.444;-2.018;2022-12-07T09:35:46;39.10;;;18.03;;
43435;SDS011;36399;51.444;-2.018;2022-12-07T09:38:13;37.60;;;18.23;;
43435;SDS011;36399;51.444;-2.018;2022-12-07T09:40:40;38.97;;;19.03;;
43435;SDS011;36399;51.444;-2.018;2022-12-07T09:43:11;39.73;;;18.73;;
43435;SDS011;36399;51.444;-2.018;2022-12-07T09:45:42;41.80;;;19.00;;
43435;SDS011;36399;51.444;-2.018;2022-12-07T09:48:17;37.67;;;16.97;;
43435;SDS011;36399;51.444;-2.018;2022-12-07T09:50:45;35.70;;;14.87;;
43435;SDS011;36399;51.444;-2.018;2022-12-07T09:53:19;33.63;;;15.63;;
43435;SDS011;36399;51.444;-2.018;2022-12-07T09:55:50;29.80;;;14.53;;
43435;SDS011;36399;51.444;-2.018;2022-12-07T09:58:24;45.50;;;19.30;;
43435;SDS011;36399;51.444;-2.018;2022-12-07T10:00:56;34.70;;;15.70;;
43435;SDS011;36399;51.444;-2.018;2022-12-07T10:03:28;21.97;;;11.07;;
43435;SDS011;36399;51.444;-2.018;2022-12-07T10:05:55;21.53;;;11.73;;
43435;SDS011;36399;51.444;-2.018;2022-12-07T10:08:21;17.03;;;9.83;;
43435;SDS011;36399;51.444;-2.018;2022-12-07T10:10:50;17.63;;;9.17;;
43435;SDS011;36399;51.444;-2.018;2022-12-07T10:13:21;11.13;;;8.17;;
43435;SDS011;36399;51.444;-2.018;2022-12-07T10:15:59;11.20;;;7.97;;
43435;SDS011;36399;51.444;-2.018;2022-12-07T10:21:14;12.47;;;7.27;;
43435;SDS011;36399;51.444;-2.018;2022-12-07T10:23:43;14.70;;;7.43;;
43435;SDS011;36399;51.444;-2.018;2022-12-07T10:26:36;13.50;;;8.97;;
43435;SDS011;36399;51.444;-2.018;2022-12-07T10:31:46;9.20;;;5.37;;
43435;SDS011;36399;51.444;-2.018;2022-12-07T10:34:26;9.77;;;5.50;;
43435;SDS011;36399;51.444;-2.018;2022-12-07T10:37:07;11.60;;;5.53;;
43435;SDS011;36399;51.444;-2.018;2022-12-07T10:42:19;9.65;;;4.40;;
43435;SDS011;36399;51.444;-2.018;2022-12-07T10:44:49;10.15;;;4.72;;
43435;SDS011;36399;51.444;-2.018;2022-12-07T10:55:52;8.93;;;5.13;;
43435;SDS011;36399;51.444;-2.018;2022-12-07T11:01:38;8.88;;;5.07;;
43435;SDS011;36399;51.444;-2.018;2022-12-07T11:04:15;9.25;;;6.03;;
43435;SDS011;36399;51.444;-2.018;2022-12-07T11:12:25;11.32;;;7.00;;
43435;SDS011;36399;51.444;-2.018;2022-12-07T11:20:39;8.88;;;6.00;;
43435;SDS011;36399;51.444;-2.018;2022-12-07T11:23:45;8.48;;;6.03;;
43435;SDS011;36399;51.444;-2.018;2022-12-07T11:34:24;9.60;;;6.10;;
43435;SDS011;36399;51.444;-2.018;2022-12-07T11:37:00;11.07;;;5.05;;
43435;SDS011;36399;51.444;-2.018;2022-12-07T11:39:36;13.43;;;5.90;;
43435;SDS011;36399;51.444;-2.018;2022-12-07T11:42:09;9.63;;;5.10;;
43435;SDS011;36399;51.444;-2.018;2022-12-07T11:47:20;10.57;;;6.17;;
43435;SDS011;36399;51.444;-2.018;2022-12-07T11:49:51;11.70;;;5.53;;
43435;SDS011;36399;51.444;-2.018;2022-12-07T11:54:56;11.60;;;6.15;;
43435;SDS011;36399;51.444;-2.018;2022-12-07T11:57:28;15.77;;;7.97;;
43435;SDS011;36399;51.444;-2.018;2022-12-07T12:00:02;13.73;;;7.23;;
43435;SDS011;36399;51.444;-2.018;2022-12-07T12:02:36;32.40;;;18.87;;
43435;SDS011;36399;51.444;-2.018;2022-12-07T12:05:13;23.90;;;15.53;;
43435;SDS011;36399;51.444;-2.018;2022-12-07T12:07:43;17.97;;;11.77;;
43435;SDS011;36399;51.444;-2.018;2022-12-07T12:10:19;22.63;;;13.03;;
43435;SDS011;36399;51.444;-2.018;2022-12-07T12:13:01;16.60;;;9.57;;
43435;SDS011;36399;51.444;-2.018;2022-12-07T12:21:04;18.00;;;10.40;;
43435;SDS011;36399;51.444;-2.018;2022-12-07T12:26:22;13.43;;;7.37;;
43435;SDS011;36399;51.444;-2.018;2022-12-07T12:28:52;20.80;;;8.50;;
43435;SDS011;36399;51.444;-2.018;2022-12-07T12:33:46;18.77;;;7.37;;
43435;SDS011;36399;51.444;-2.018;2022-12-07T12:46:54;9.87;;;4.50;;
43435;SDS011;36399;51.444;-2.018;2022-12-07T12:51:47;8.37;;;3.60;;
43435;SDS011;36399;51.444;-2.018;2022-12-07T12:54:15;10.63;;;4.03;;
43435;SDS011;36399;51.444;-2.018;2022-12-07T12:59:30;7.43;;;4.60;;
43435;SDS011;36399;51.444;-2.018;2022-12-07T13:04:47;10.73;;;5.17;;
43435;SDS011;36399;51.444;-2.018;2022-12-07T13:23:38;11.30;;;5.30;;
43435;SDS011;36399;51.444;-2.018;2022-12-07T13:31:33;9.60;;;4.53;;
43435;SDS011;36399;51.444;-2.018;2022-12-07T13:34:34;9.40;;;4.90;;
43435;SDS011;36399;51.444;-2.018;2022-12-07T13:37:04;12.73;;;3.73;;
43435;SDS011;36399;51.444;-2.018;2022-12-07T13:39:44;7.67;;;3.33;;
43435;SDS011;36399;51.444;-2.018;2022-12-07T13:42:25;11.50;;;4.40;;
43435;SDS011;36399;51.444;-2.018;2022-12-07T13:44:55;9.67;;;3.80;;
43435;SDS011;36399;51.444;-2.018;2022-12-07T13:49:52;6.13;;;3.97;;
43435;SDS011;36399;51.444;-2.018;2022-12-07T13:52:21;8.90;;;4.10;;
43435;SDS011;36399;51.444;-2.018;2022-12-07T13:57:26;9.83;;;4.77;;
43435;SDS011;36399;51.444;-2.018;2022-12-07T13:59:54;8.60;;;3.57;;
43435;SDS011;36399;51.444;-2.018;2022-12-07T14:02:21;7.47;;;3.47;;
43435;SDS011;36399;51.444;-2.018;2022-12-07T14:04:51;14.10;;;4.90;;
43435;SDS011;36399;51.444;-2.018;2022-12-07T14:07:31;11.80;;;4.47;;
43435;SDS011;36399;51.444;-2.018;2022-12-07T14:10:00;9.00;;;3.93;;
43435;SDS011;36399;51.444;-2.018;2022-12-07T14:12:29;11.57;;;5.03;;
43435;SDS011;36399;51.444;-2.018;2022-12-07T14:14:56;10.27;;;4.50;;
43435;SDS011;36399;51.444;-2.018;2022-12-07T14:17:25;11.70;;;4.63;;
43435;SDS011;36399;51.444;-2.018;2022-12-07T14:19:56;10.13;;;4.83;;
43435;SDS011;36399;51.444;-2.018;2022-12-07T14:25:13;12.03;;;5.00;;
43435;SDS011;36399;51.444;-2.018;2022-12-07T14:27:47;9.87;;;4.87;;
43435;SDS011;36399;51.444;-2.018;2022-12-07T14:30:34;11.20;;;5.13;;
43435;SDS011;36399;51.444;-2.018;2022-12-07T14:33:02;11.80;;;5.30;;
43435;SDS011;36399;51.444;-2.018;2022-12-07T14:35:30;13.33;;;6.13;;
43435;SDS011;36399;51.444;-2.018;2022-12-07T14:37:57;10.17;;;5.33;;
43435;SDS011;36399;51.444;-2.018;2022-12-07T14:40:24;14.00;;;5.70;;
43435;SDS011;36399;51.444;-2.018;2022-12-07T14:42:54;14.27;;;6.50;;
43435;SDS011;36399;51.444;-2.018;2022-12-07T14:45:26;12.10;;;6.72;;
43435;SDS011;36399;51.444;-2.018;2022-12-07T14:47:55;11.20;;;5.27;;
43435;SDS011;36399;51.444;-2.018;2022-12-07T14:50:21;12.17;;;6.30;;
43435;SDS011;36399;51.444;-2.018;2022-12-07T14:52:58;9.10;;;5.57;;
43435;SDS011;36399;51.444;-2.018;2022-12-07T14:55:27;11.87;;;6.10;;
43435;SDS011;36399;51.444;-2.018;2022-12-07T14:57:55;12.37;;;5.60;;
43435;SDS011;36399;51.444;-2.018;2022-12-07T15:00:22;12.87;;;5.03;;
43435;SDS011;36399;51.444;-2.018;2022-12-07T15:02:51;17.33;;;6.30;;
43435;SDS011;36399;51.444;-2.018;2022-12-07T15:05:17;10.83;;;5.70;;
43435;SDS011;36399;51.444;-2.018;2022-12-07T15:07:43;10.57;;;5.87;;
43435;SDS011;36399;51.444;-2.018;2022-12-07T15:10:14;12.07;;;5.47;;
43435;SDS011;36399;51.444;-2.018;2022-12-07T15:12:41;11.80;;;5.90;;
43435;SDS011;36399;51.444;-2.018;2022-12-07T15:15:07;9.77;;;5.30;;
43435;SDS011;36399;51.444;-2.018;2022-12-07T15:17:34;10.00;;;4.93;;
43435;SDS011;36399;51.444;-2.018;2022-12-07T15:20:00;15.70;;;6.03;;
43435;SDS011;36399;51.444;-2.018;2022-12-07T15:22:26;11.10;;;5.20;;
43435;SDS011;36399;51.444;-2.018;2022-12-07T15:24:52;11.80;;;5.80;;
43435;SDS011;36399;51.444;-2.018;2022-12-07T15:27:18;10.20;;;5.33;;
43435;SDS011;36399;51.444;-2.018;2022-12-07T15:29:44;12.10;;;5.57;;
43435;SDS011;36399;51.444;-2.018;2022-12-07T15:32:10;11.70;;;5.50;;
43435;SDS011;36399;51.444;-2.018;2022-12-07T15:34:36;14.50;;;5.20;;
43435;SDS011;36399;51.444;-2.018;2022-12-07T15:37:02;18.30;;;7.00;;
43435;SDS011;36399;51.444;-2.018;2022-12-07T15:39:27;10.87;;;5.93;;
43435;SDS011;36399;51.444;-2.018;2022-12-07T15:41:53;14.40;;;5.93;;
43435;SDS011;36399;51.444;-2.018;2022-12-07T15:44:19;12.40;;;5.70;;
43435;SDS011;36399;51.444;-2.018;2022-12-07T15:47:04;13.90;;;6.40;;
43435;SDS011;36399;51.444;-2.018;2022-12-07T15:49:31;16.33;;;7.00;;
43435;SDS011;36399;51.444;-2.018;2022-12-07T15:51:57;16.17;;;6.77;;
43435;SDS011;36399;51.444;-2.018;2022-12-07T15:54:24;12.03;;;6.17;;
43435;SDS011;36399;51.444;-2.018;2022-12-07T15:56:53;9.73;;;5.93;;
43435;SDS011;36399;51.444;-2.018;2022-12-07T15:59:20;14.67;;;6.20;;
43435;SDS011;36399;51.444;-2.018;2022-12-07T16:01:46;16.07;;;6.50;;
43435;SDS011;36399;51.444;-2.018;2022-12-07T16:04:12;15.13;;;6.43;;
43435;SDS011;36399;51.444;-2.018;2022-12-07T16:06:38;14.67;;;6.80;;
43435;SDS011;36399;51.444;-2.018;2022-12-07T16:09:04;14.60;;;6.13;;
43435;SDS011;36399;51.444;-2.018;2022-12-07T16:11:30;13.47;;;6.83;;
43435;SDS011;36399;51.444;-2.018;2022-12-07T16:13:57;13.07;;;5.63;;
43435;SDS011;36399;51.444;-2.018;2022-12-07T16:16:23;13.57;;;5.97;;
43435;SDS011;36399;51.444;-2.018;2022-12-07T16:18:49;13.53;;;7.23;;
43435;SDS011;36399;51.444;-2.018;2022-12-07T16:21:16;18.20;;;6.37;;
43435;SDS011;36399;51.444;-2.018;2022-12-07T16:23:43;11.37;;;6.33;;
43435;SDS011;36399;51.444;-2.018;2022-12-07T16:26:13;16.00;;;6.53;;
43435;SDS011;36399;51.444;-2.018;2022-12-07T16:28:40;14.13;;;6.80;;
43435;SDS011;36399;51.444;-2.018;2022-12-07T16:31:11;14.90;;;6.90;;
43435;SDS011;36399;51.444;-2.018;2022-12-07T16:33:39;15.03;;;6.77;;
43435;SDS011;36399;51.444;-2.018;2022-12-07T16:36:07;12.63;;;6.87;;
43435;SDS011;36399;51.444;-2.018;2022-12-07T16:38:34;12.43;;;6.30;;